Time;durP1;ratioP1;P1;durP2;ratioP2;P2;SDS_P1;SDS_P2;PMS_P1;PMS_P2;Temp;Humidity;BMP_temperature;BMP_pressure;BME280_temperature;BME280_humidity;BME280_pressure;Samples;Min_cycle;Max_cycle;Signal;HPM_P1;HPM_P2
2022/07/17 00:00:49;;;;;;;;;2.33;2.00;;;;;22.77;34.81;102182.72;5080150;27;67245;-68
2022/07/17 00:03:16;;;;;;;;;3.33;3.33;;;;;22.72;35.06;102179.50;5080506;28;53224;-69
2022/07/17 00:05:42;;;;;;;;;2.00;2.00;;;;;22.68;34.70;102187.00;5079778;28;45688;-69
2022/07/17 00:08:08;;;;;;;;;3.33;3.33;;;;;22.63;35.32;102186.53;5080817;27;45417;-70
2022/07/17 00:10:34;;;;;;;;;3.00;3.00;;;;;22.60;35.30;102176.78;5080639;28;45219;-70
2022/07/17 00:13:00;;;;;;;;;2.00;2.00;;;;;22.60;35.01;102178.66;5080530;27;46185;-69
2022/07/17 00:15:25;;;;;;;;;3.00;3.00;;;;;22.60;34.99;102173.22;5079946;27;50295;-70
2022/07/17 00:17:51;;;;;;;;;3.00;3.00;;;;;22.60;35.01;102167.81;5079995;28;45539;-69
2022/07/17 00:20:16;;;;;;;;;2.00;2.00;;;;;22.60;34.88;102170.50;5079790;27;45388;-69
2022/07/17 00:22:42;;;;;;;;;3.00;3.00;;;;;22.59;35.24;102174.19;5078485;27;74284;-68
2022/07/17 00:25:09;;;;;;;;;4.00;3.33;;;;;22.58;35.24;102189.63;5078088;28;45352;-69
2022/07/17 00:27:35;;;;;;;;;2.67;2.67;;;;;22.54;35.93;102188.13;5079607;27;45670;-68
2022/07/17 00:30:00;;;;;;;;;4.00;4.00;;;;;22.52;35.59;102179.25;5079532;27;45550;-68
2022/07/17 00:32:26;;;;;;;;;2.00;2.00;;;;;22.54;35.06;102179.13;5079440;28;45523;-68
2022/07/17 00:34:51;;;;;;;;;5.00;5.00;;;;;22.57;35.37;102179.75;5079553;27;45333;-69
2022/07/17 00:37:17;;;;;;;;;1.67;1.67;;;;;22.60;35.08;102176.78;5079505;27;45441;-69
2022/07/17 00:39:42;;;;;;;;;2.00;2.00;;;;;22.61;35.45;102181.22;5079608;28;45564;-69
2022/07/17 00:42:12;;;;;;;;;2.67;2.67;;;;;22.57;35.19;102178.91;5078205;27;71741;-69
2022/07/17 00:44:40;;;;;;;;;3.00;3.00;;;;;22.53;35.09;102180.09;5079442;27;45475;-68
2022/07/17 00:47:12;;;;;;;;;3.00;3.00;;;;;22.53;35.49;102183.69;5079491;27;45579;-69
2022/07/17 00:49:37;;;;;;;;;2.67;2.00;;;;;22.49;35.44;102179.50;5079428;27;45395;-68
2022/07/17 00:52:03;;;;;;;;;2.00;2.00;;;;;22.45;35.47;102176.16;5078125;27;69238;-70
2022/07/17 00:54:29;;;;;;;;;4.67;3.00;;;;;22.39;35.85;102168.50;5078792;27;45440;-69
2022/07/17 00:56:56;;;;;;;;;3.00;3.00;;;;;22.33;35.81;102177.09;5077360;28;57306;-69
2022/07/17 00:59:22;;;;;;;;;2.00;2.00;;;;;22.29;35.67;102181.03;5077034;28;66379;-69
2022/07/17 01:01:47;;;;;;;;;4.00;3.00;;;;;22.26;36.00;102186.69;5077499;28;46443;-68
2022/07/17 01:04:13;;;;;;;;;2.00;2.00;;;;;22.24;35.61;102177.81;5078263;27;67121;-70
2022/07/17 01:06:38;;;;;;;;;2.00;1.00;;;;;22.23;35.59;102179.69;5078143;27;70429;-69
2022/07/17 01:09:04;;;;;;;;;4.00;3.00;;;;;22.21;35.85;102189.75;5079060;27;46127;-69
2022/07/17 01:11:29;;;;;;;;;3.00;3.00;;;;;22.22;35.70;102188.78;5077838;27;70394;-69
2022/07/17 01:13:55;;;;;;;;;3.00;3.00;;;;;22.23;36.19;102179.69;5077919;28;45276;-69
2022/07/17 01:16:20;;;;;;;;;5.33;3.67;;;;;22.22;35.76;102183.34;5077255;28;55195;-69
2022/07/17 01:18:45;;;;;;;;;3.00;2.33;;;;;22.21;36.29;102187.03;5081780;27;45314;-69
2022/07/17 01:21:11;;;;;;;;;3.00;3.00;;;;;22.22;35.91;102182.50;5081595;27;68469;-69
2022/07/17 01:23:36;;;;;;;;;3.00;3.00;;;;;22.22;35.70;102179.81;5082654;27;45426;-69
2022/07/17 01:26:02;;;;;;;;;2.00;2.00;;;;;22.22;35.93;102186.06;5082097;27;45445;-69
2022/07/17 01:28:27;;;;;;;;;2.33;2.33;;;;;22.17;35.94;102177.44;5082321;27;50304;-69
2022/07/17 01:30:52;;;;;;;;;2.00;2.00;;;;;22.11;36.16;102181.50;5081874;28;46088;-69
2022/07/17 01:33:19;;;;;;;;;3.00;3.00;;;;;22.09;36.54;102182.59;5081469;27;69571;-68
2022/07/17 01:35:44;;;;;;;;;2.00;2.00;;;;;22.06;36.15;102182.81;5082466;27;46492;-70
2022/07/17 01:38:10;;;;;;;;;3.00;3.00;;;;;22.03;36.28;102177.66;5082152;27;45236;-69
2022/07/17 01:40:35;;;;;;;;;2.00;2.00;;;;;21.99;36.55;102171.59;5081419;27;58694;-68
2022/07/17 01:43:01;;;;;;;;;2.67;2.67;;;;;21.93;36.43;102180.22;5082095;27;45316;-69
2022/07/17 01:45:26;;;;;;;;;3.00;3.00;;;;;21.86;37.32;102182.50;5081416;27;64569;-68
2022/07/17 01:47:51;;;;;;;;;3.33;2.00;;;;;21.79;36.61;102178.56;5081233;27;68013;-69
2022/07/17 01:50:17;;;;;;;;;3.00;3.00;;;;;21.74;36.80;102168.06;5081120;27;73778;-69
2022/07/17 01:52:43;;;;;;;;;2.00;2.00;;;;;21.70;37.27;102168.44;5081997;27;45392;-69
2022/07/17 01:55:10;;;;;;;;;1.67;1.67;;;;;21.68;37.22;102167.66;5081917;27;45449;-69
2022/07/17 01:57:36;;;;;;;;;4.00;3.00;;;;;21.61;38.01;102165.41;5081883;27;45694;-69
2022/07/17 02:00:06;;;;;;;;;3.00;2.00;;;;;21.56;37.61;102158.63;5080423;28;45983;-69
2022/07/17 02:02:31;;;;;;;;;5.00;3.67;;;;;21.54;37.42;102161.47;5081833;27;45424;-69
2022/07/17 02:04:57;;;;;;;;;2.67;2.67;;;;;21.55;37.28;102165.91;5081914;27;45292;-68
2022/07/17 02:07:22;;;;;;;;;2.00;2.00;;;;;21.53;37.47;102158.84;5080804;27;68187;-69
2022/07/17 02:09:47;;;;;;;;;4.00;2.33;;;;;21.48;38.05;102153.75;5081543;27;47230;-68
2022/07/17 02:12:13;;;;;;;;;2.00;2.00;;;;;21.42;38.46;102162.34;5080373;27;72412;-68
2022/07/17 02:14:38;;;;;;;;;2.00;2.00;;;;;21.31;38.45;102155.91;5081645;27;45330;-69
2022/07/17 02:17:03;;;;;;;;;2.00;1.00;;;;;21.24;37.98;102154.63;5080856;27;70292;-68
2022/07/17 02:19:29;;;;;;;;;2.33;2.33;;;;;21.18;38.34;102152.38;5081427;27;46118;-68
2022/07/17 02:21:54;;;;;;;;;4.00;4.00;;;;;21.10;39.18;102158.34;5081572;28;45433;-68
2022/07/17 02:24:20;;;;;;;;;3.00;3.00;;;;;21.04;39.59;102163.34;5081819;27;45622;-68
2022/07/17 02:26:45;;;;;;;;;5.00;3.67;;;;;20.94;39.30;102150.50;5081346;27;45374;-68
2022/07/17 02:29:10;;;;;;;;;2.00;2.00;;;;;20.89;38.99;102154.53;5079333;27;72787;-68
2022/07/17 02:31:36;;;;;;;;;2.00;2.00;;;;;20.81;39.09;102153.22;5080680;27;59779;-69
2022/07/17 02:34:01;;;;;;;;;2.00;2.00;;;;;20.77;39.07;102158.97;5081259;27;47641;-69
2022/07/17 02:36:26;;;;;;;;;4.00;4.00;;;;;20.75;39.86;102160.91;5080874;27;54372;-69
2022/07/17 02:38:52;;;;;;;;;7.00;3.33;;;;;20.76;39.50;102160.81;5080378;27;73669;-69
2022/07/17 02:41:17;;;;;;;;;4.00;3.33;;;;;20.75;39.31;102160.91;5080818;28;45318;-69
2022/07/17 02:43:43;;;;;;;;;4.33;4.33;;;;;20.74;39.73;102161.88;5081468;27;45452;-69
2022/07/17 02:46:08;;;;;;;;;5.00;5.00;;;;;20.72;39.37;102158.44;5081316;27;45527;-69
2022/07/17 02:48:33;;;;;;;;;5.33;5.33;;;;;20.69;39.99;102158.63;5080313;27;75398;-69
2022/07/17 02:50:59;;;;;;;;;5.00;4.67;;;;;20.64;39.63;102154.41;5080311;27;67789;-68
2022/07/17 02:53:24;;;;;;;;;6.33;6.00;;;;;20.57;40.08;102150.44;5081152;28;45453;-68
2022/07/17 02:55:50;;;;;;;;;4.00;4.00;;;;;20.51;40.35;102153.56;5080078;27;63486;-69
2022/07/17 02:58:15;;;;;;;;;6.00;5.33;;;;;20.45;40.16;102160.25;5080178;27;68206;-69
2022/07/17 03:00:40;;;;;;;;;8.67;7.33;;;;;20.40;39.97;102154.34;5080159;28;64146;-68
2022/07/17 03:03:06;;;;;;;;;4.67;2.33;;;;;20.41;40.75;102152.50;5080306;27;60249;-69
2022/07/17 03:05:31;;;;;;;;;8.33;7.67;;;;;20.38;40.43;102153.56;5081011;27;45334;-69
2022/07/17 03:07:56;;;;;;;;;9.00;7.67;;;;;20.36;40.12;102154.66;5080571;27;45950;-69
2022/07/17 03:10:22;;;;;;;;;15.33;13.33;;;;;20.29;40.63;102151.50;5079767;27;70874;-69
2022/07/17 03:12:48;;;;;;;;;15.00;13.00;;;;;20.27;40.50;102151.63;5080790;27;45710;-69
2022/07/17 03:15:13;;;;;;;;;19.67;15.00;;;;;20.27;40.49;102154.34;5079563;28;45755;-70
2022/07/17 03:17:39;;;;;;;;;14.67;12.00;;;;;20.29;40.87;102148.81;5080549;27;46092;-69
2022/07/17 03:20:06;;;;;;;;;17.67;14.33;;;;;20.29;40.56;102148.81;5080769;27;45600;-69
2022/07/17 03:22:31;;;;;;;;;22.33;18.67;;;;;20.30;40.29;102146.00;5080546;27;45416;-68
2022/07/17 03:24:56;;;;;;;;;21.00;20.00;;;;;20.36;40.34;102151.94;5079467;27;65289;-69
2022/07/17 03:27:21;;;;;;;;;23.00;20.33;;;;;20.38;40.79;102150.00;5079292;27;75678;-68
2022/07/17 03:29:47;;;;;;;;;22.67;21.00;;;;;20.38;40.20;102158.97;5066849;28;45394;-68
2022/07/17 03:32:13;;;;;;;;;27.33;24.33;;;;;20.37;40.70;102161.78;5080549;27;45868;-69
2022/07/17 03:34:38;;;;;;;;;28.33;26.33;;;;;20.34;40.55;102162.88;5080288;27;45745;-69
2022/07/17 03:37:04;;;;;;;;;26.00;24.67;;;;;20.28;40.74;102166.84;5079947;27;46944;-68
2022/07/17 03:39:30;;;;;;;;;22.00;17.00;;;;;20.25;40.95;102172.47;5080064;27;49217;-69
2022/07/17 03:41:55;;;;;;;;;23.00;19.67;;;;;20.24;40.87;102181.53;5079779;27;45295;-69
2022/07/17 03:44:21;;;;;;;;;19.00;17.67;;;;;20.23;40.86;102174.41;5080215;27;45601;-69
2022/07/17 03:46:46;;;;;;;;;21.33;19.00;;;;;20.20;40.24;102173.78;5080213;27;45345;-69
2022/07/17 03:49:12;;;;;;;;;14.67;12.00;;;;;20.20;40.41;102181.88;5080156;27;45333;-69
2022/07/17 03:51:37;;;;;;;;;14.00;14.00;;;;;20.19;40.58;102180.13;5079249;27;65127;-69
2022/07/17 03:54:02;;;;;;;;;11.33;11.33;;;;;20.20;40.35;102184.56;5079659;27;53501;-70
2022/07/17 03:56:28;;;;;;;;;14.00;12.67;;;;;20.19;40.59;102178.28;5079220;27;66533;-69
2022/07/17 03:58:53;;;;;;;;;9.67;9.67;;;;;20.20;40.67;102184.56;5078926;27;69554;-69
2022/07/17 04:01:18;;;;;;;;;13.33;13.33;;;;;20.21;41.22;102176.38;5080076;27;45612;-68
2022/07/17 04:03:44;;;;;;;;;16.67;12.33;;;;;20.22;40.63;102170.00;5079744;28;47843;-69
2022/07/17 04:06:09;;;;;;;;;10.33;10.33;;;;;20.20;40.97;102171.06;5079758;27;50912;-70
2022/07/17 04:08:34;;;;;;;;;11.00;11.00;;;;;20.14;41.65;102164.22;5078917;27;70854;-69
2022/07/17 04:11:00;;;;;;;;;7.33;7.33;;;;;20.11;41.44;102169.88;5078966;27;62254;-69
2022/07/17 04:13:25;;;;;;;;;7.00;5.67;;;;;20.08;41.39;102168.25;5079996;27;45829;-69
2022/07/17 04:15:55;;;;;;;;;5.00;4.33;;;;;20.08;41.55;102167.38;5078921;27;68024;-70
2022/07/17 04:18:29;;;;;;;;;4.67;4.67;;;;;20.05;41.68;102172.97;5079616;27;45461;-70
2022/07/17 04:20:59;;;;;;;;;5.00;5.00;;;;;20.00;41.71;102178.72;5079802;27;45354;-70
2022/07/17 04:23:26;;;;;;;;;2.00;2.00;;;;;19.98;41.41;102184.19;5080358;27;45391;-70
2022/07/17 04:25:52;;;;;;;;;2.67;2.33;;;;;20.00;41.69;102197.63;5079499;27;46256;-69
2022/07/17 04:28:17;;;;;;;;;3.00;2.00;;;;;19.98;41.27;102203.09;5080134;27;45415;-70
2022/07/17 04:30:43;;;;;;;;;0.00;0.00;;;;;19.97;41.36;102204.09;5079250;27;63808;-69
2022/07/17 04:33:09;;;;;;;;;2.67;2.67;;;;;19.93;41.53;102202.56;5080385;27;45431;-71
2022/07/17 04:35:34;;;;;;;;;3.33;3.00;;;;;19.88;41.41;102201.13;5080152;27;46251;-69
2022/07/17 04:38:00;;;;;;;;;4.67;3.00;;;;;19.79;42.44;102206.16;5080157;27;45418;-69
2022/07/17 04:40:26;;;;;;;;;2.67;2.67;;;;;19.76;41.75;102208.19;5080302;28;45301;-70
2022/07/17 04:42:51;;;;;;;;;2.00;2.00;;;;;19.79;42.00;102221.47;5080281;27;45407;-68
2022/07/17 04:45:17;;;;;;;;;2.00;2.00;;;;;19.83;41.73;102231.16;5080115;27;45762;-69
2022/07/17 04:47:42;;;;;;;;;2.33;2.33;;;;;19.83;41.70;102232.00;5080274;27;45375;-69
2022/07/17 04:50:09;;;;;;;;;3.00;3.00;;;;;19.85;42.21;102233.75;5079287;27;67503;-70
2022/07/17 04:52:34;;;;;;;;;4.00;3.00;;;;;19.85;41.88;102231.03;5079357;28;45480;-70
2022/07/17 04:54:59;;;;;;;;;2.00;2.00;;;;;19.79;42.07;102230.44;5079620;27;47472;-70
2022/07/17 04:57:25;;;;;;;;;2.00;2.00;;;;;19.81;41.88;102227.66;5079276;27;68230;-70
2022/07/17 04:59:51;;;;;;;;;2.00;2.00;;;;;19.83;41.65;102231.16;5073504;28;45328;-69
2022/07/17 05:02:16;;;;;;;;;3.00;3.00;;;;;19.86;41.38;102235.47;5095859;27;45438;-70
2022/07/17 05:04:41;;;;;;;;;2.00;2.00;;;;;19.86;41.72;102235.47;5079169;27;69205;-70
2022/07/17 05:07:06;;;;;;;;;2.00;2.00;;;;;19.87;41.44;102238.06;5078944;27;68757;-70
2022/07/17 05:09:32;;;;;;;;;2.33;2.00;;;;;19.92;41.28;102235.94;5079749;27;52752;-70
2022/07/17 05:11:57;;;;;;;;;2.00;2.00;;;;;19.96;41.45;102228.50;5078796;27;66974;-69
2022/07/17 05:14:23;;;;;;;;;4.00;2.00;;;;;19.99;41.59;102234.53;5079569;27;50689;-70
2022/07/17 05:16:48;;;;;;;;;2.33;1.00;;;;;20.03;41.43;102239.75;5078627;27;70789;-70
2022/07/17 05:19:13;;;;;;;;;2.00;2.00;;;;;20.00;41.24;102227.31;5079089;27;64258;-70
2022/07/17 05:21:39;;;;;;;;;3.67;1.33;;;;;20.00;42.44;102235.41;5078801;27;66399;-70
2022/07/17 05:24:04;;;;;;;;;3.00;3.00;;;;;20.02;41.55;102240.72;5079798;27;46032;-70
2022/07/17 05:26:29;;;;;;;;;2.00;2.00;;;;;20.05;41.48;102243.19;5079221;28;45347;-70
2022/07/17 05:28:55;;;;;;;;;2.00;2.00;;;;;20.07;41.45;102242.13;5079907;27;45365;-69
2022/07/17 05:31:20;;;;;;;;;2.67;2.00;;;;;20.08;41.16;102251.09;5078626;27;65704;-70
2022/07/17 05:33:45;;;;;;;;;3.00;1.67;;;;;20.08;41.37;102230.34;5078784;27;70584;-69
2022/07/17 05:36:11;;;;;;;;;1.67;1.67;;;;;20.05;41.93;102235.09;5078744;27;63288;-69
2022/07/17 05:38:37;;;;;;;;;1.33;1.33;;;;;20.07;41.45;102241.25;5078727;27;67029;-70
2022/07/17 05:41:02;;;;;;;;;2.00;2.00;;;;;20.05;41.61;102235.09;5078927;27;45821;-69
2022/07/17 05:43:28;;;;;;;;;2.00;2.00;;;;;20.10;41.01;102238.34;5079412;28;45488;-70
2022/07/17 05:45:54;;;;;;;;;2.00;2.00;;;;;20.14;41.55;102234.47;5078588;27;67892;-70
2022/07/17 05:48:20;;;;;;;;;2.67;2.33;;;;;20.16;41.29;102244.19;5079661;27;45772;-70
2022/07/17 05:50:46;;;;;;;;;2.67;2.00;;;;;20.21;41.15;102234.91;5079261;27;45535;-69
2022/07/17 05:53:11;;;;;;;;;4.00;3.00;;;;;20.24;41.70;102240.97;5078341;27;71640;-70
2022/07/17 05:55:36;;;;;;;;;2.33;2.33;;;;;20.26;41.76;102235.44;5078978;27;47160;-69
2022/07/17 05:58:02;;;;;;;;;4.00;3.00;;;;;20.25;41.13;102252.66;5079390;27;45382;-70
2022/07/17 06:00:27;;;;;;;;;2.67;2.67;;;;;20.26;41.34;102244.44;5079198;28;45539;-69
2022/07/17 06:02:52;;;;;;;;;2.00;2.00;;;;;20.31;41.08;102245.00;5078509;28;67971;-70
2022/07/17 06:05:18;;;;;;;;;3.00;3.00;;;;;20.37;41.17;102250.94;5081486;27;72039;-70
2022/07/17 06:07:43;;;;;;;;;3.00;2.00;;;;;20.39;41.57;102255.28;5082820;27;45369;-71
2022/07/17 06:10:09;;;;;;;;;3.67;3.00;;;;;20.44;41.04;102249.53;5082498;27;45421;-68
2022/07/17 06:12:34;;;;;;;;;3.00;3.00;;;;;20.50;41.05;102247.28;5082389;28;45344;-69
2022/07/17 06:15:00;;;;;;;;;2.67;2.67;;;;;20.58;40.75;102248.59;5082270;27;49040;-68
2022/07/17 06:17:25;;;;;;;;;0.00;0.00;;;;;20.64;40.75;102250.88;5081728;27;69082;-68
2022/07/17 06:19:51;;;;;;;;;2.00;2.00;;;;;20.72;41.01;102239.53;5082443;27;45307;-68
2022/07/17 06:22:18;;;;;;;;;4.00;2.33;;;;;20.79;40.95;102252.53;5082247;27;46424;-68
2022/07/17 06:24:44;;;;;;;;;3.00;3.00;;;;;20.87;40.75;102241.16;5081966;27;45382;-69
2022/07/17 06:27:09;;;;;;;;;2.33;2.33;;;;;20.94;40.30;102237.03;5080729;27;45437;-69
2022/07/17 06:29:34;;;;;;;;;4.33;3.33;;;;;21.01;40.31;102237.47;5080271;27;66352;-70
2022/07/17 06:32:00;;;;;;;;;6.00;4.00;;;;;21.06;40.48;102237.13;5080213;28;74087;-68
2022/07/17 06:34:25;;;;;;;;;3.67;2.00;;;;;21.11;40.20;102240.38;5080483;27;45395;-70
2022/07/17 06:36:51;;;;;;;;;3.00;3.00;;;;;21.19;40.51;102237.97;5080160;27;45675;-68
2022/07/17 06:39:16;;;;;;;;;4.00;3.00;;;;;21.23;40.61;102234.06;5079929;28;65721;-69
2022/07/17 06:41:42;;;;;;;;;3.67;2.33;;;;;21.31;40.18;102226.25;5095016;27;45496;-68
2022/07/17 06:44:07;;;;;;;;;4.00;4.00;;;;;21.44;39.63;102217.22;5079430;27;45584;-68
2022/07/17 06:46:33;;;;;;;;;2.33;2.33;;;;;21.60;39.68;102220.56;5081812;27;45360;-68
2022/07/17 06:48:58;;;;;;;;;2.33;2.33;;;;;21.79;38.86;102227.28;5080012;27;67097;-68
2022/07/17 06:51:23;;;;;;;;;6.00;3.33;;;;;21.94;38.56;102220.72;5081141;27;45717;-68
2022/07/17 06:53:49;;;;;;;;;2.00;2.00;;;;;22.10;38.77;102216.84;5080341;27;45469;-69
2022/07/17 06:56:15;;;;;;;;;2.00;2.00;;;;;22.24;38.32;102219.34;5079866;27;55542;-68
2022/07/17 06:58:40;;;;;;;;;3.00;3.00;;;;;22.43;37.85;102223.34;5079704;27;66769;-68
2022/07/17 07:01:05;;;;;;;;;2.00;2.00;;;;;22.58;37.73;102216.72;5079058;28;74412;-69
2022/07/17 07:03:31;;;;;;;;;3.00;3.00;;;;;22.71;37.33;102219.34;5080113;28;56833;-69
2022/07/17 07:05:56;;;;;;;;;1.67;1.67;;;;;22.80;37.07;102223.13;5079526;28;67637;-69
2022/07/17 07:08:21;;;;;;;;;5.00;2.00;;;;;22.87;36.60;102226.25;5078785;27;64902;-69
2022/07/17 07:10:47;;;;;;;;;1.67;1.67;;;;;22.98;36.62;102228.09;5079936;28;46995;-69
2022/07/17 07:13:12;;;;;;;;;2.00;2.00;;;;;23.10;36.56;102219.81;5079512;27;64994;-69
2022/07/17 07:15:37;;;;;;;;;2.00;2.00;;;;;23.34;36.44;102223.41;5079868;27;45350;-69
2022/07/17 07:18:03;;;;;;;;;3.33;2.00;;;;;23.60;36.09;102224.81;5079095;27;45426;-70
2022/07/17 07:20:29;;;;;;;;;2.00;2.00;;;;;23.92;35.66;102233.97;5080812;27;45305;-70
2022/07/17 07:22:55;;;;;;;;;2.00;2.00;;;;;24.24;34.64;102227.66;5078112;28;45386;-70
2022/07/17 07:25:21;;;;;;;;;3.00;3.00;;;;;24.48;34.08;102229.25;5079546;27;45532;-69
2022/07/17 07:27:46;;;;;;;;;3.00;2.00;;;;;24.80;34.59;102234.59;5080032;27;45702;-70
2022/07/17 07:30:12;;;;;;;;;2.00;1.00;;;;;25.12;33.54;102228.13;5079536;28;45429;-70
2022/07/17 07:32:38;;;;;;;;;1.00;1.00;;;;;25.48;32.65;102223.09;5080638;27;45801;-70
2022/07/17 07:35:05;;;;;;;;;2.00;2.00;;;;;25.83;31.43;102226.31;5080560;27;45723;-72
2022/07/17 07:37:31;;;;;;;;;2.00;1.33;;;;;26.13;31.49;102219.84;5081027;27;45559;-70
2022/07/17 07:39:57;;;;;;;;;2.00;2.00;;;;;26.49;30.36;102225.53;5080224;27;45560;-71
2022/07/17 07:42:23;;;;;;;;;2.33;2.00;;;;;26.76;30.27;102220.31;5079707;27;73040;-71
2022/07/17 07:44:48;;;;;;;;;1.33;1.33;;;;;27.05;30.25;102221.03;5081347;27;45458;-72
2022/07/17 07:47:13;;;;;;;;;2.67;1.00;;;;;27.44;29.20;102217.22;5079966;27;59936;-71
2022/07/17 07:49:39;;;;;;;;;0.00;0.00;;;;;27.84;29.39;102210.47;5080243;27;46302;-72
2022/07/17 07:52:04;;;;;;;;;2.00;2.00;;;;;28.30;28.77;102213.06;5079611;27;69529;-72
2022/07/17 07:54:30;;;;;;;;;3.00;1.00;;;;;28.75;27.84;102215.75;5080579;27;45365;-70
2022/07/17 07:56:56;;;;;;;;;2.00;2.00;;;;;29.34;28.33;102213.13;5080472;27;45464;-71
2022/07/17 07:59:21;;;;;;;;;4.00;0.67;;;;;29.90;26.69;102209.81;5080041;27;46250;-70
2022/07/17 08:01:46;;;;;;;;;2.00;0.00;;;;;30.35;26.53;102206.50;5079260;27;67387;-70
2022/07/17 08:04:12;;;;;;;;;1.00;1.00;;;;;30.81;25.32;102211.38;5079879;28;66572;-70
2022/07/17 08:06:38;;;;;;;;;1.67;1.67;;;;;31.36;23.43;102208.75;5080395;27;45402;-69
2022/07/17 08:09:03;;;;;;;;;1.00;1.00;;;;;31.75;23.73;102224.31;5080638;27;46068;-70
2022/07/17 08:11:29;;;;;;;;;1.00;1.00;;;;;32.06;23.73;102212.38;5080094;27;45397;-70
2022/07/17 08:13:54;;;;;;;;;1.00;1.00;;;;;32.40;22.50;102219.28;5079423;27;64364;-71
2022/07/17 08:16:19;;;;;;;;;2.33;1.33;;;;;32.74;23.07;102226.16;5080074;27;58626;-70
2022/07/17 08:18:45;;;;;;;;;3.00;1.67;;;;;33.32;22.68;102222.69;5080162;27;46076;-70
2022/07/17 08:21:10;;;;;;;;;1.00;1.00;;;;;33.90;21.47;102216.31;5079951;27;59530;-70
2022/07/17 08:23:35;;;;;;;;;0.00;0.00;;;;;34.16;21.36;102214.81;5080601;27;45279;-71
2022/07/17 08:26:02;;;;;;;;;1.00;1.00;;;;;34.22;19.93;102217.59;5079856;27;49056;-71
2022/07/17 08:28:27;;;;;;;;;1.00;1.00;;;;;34.36;20.17;102213.06;5078883;27;45417;-70
2022/07/17 08:30:52;;;;;;;;;2.00;2.00;;;;;34.51;20.32;102217.63;5079198;28;71553;-71
2022/07/17 08:33:17;;;;;;;;;2.00;2.00;;;;;34.56;19.47;102217.88;5080162;27;45440;-70
2022/07/17 08:35:43;;;;;;;;;0.33;0.33;;;;;34.73;19.16;102218.38;5079740;27;56730;-71
2022/07/17 08:38:08;;;;;;;;;1.00;1.00;;;;;35.10;19.66;102216.25;5079847;27;45915;-71
2022/07/17 08:40:35;;;;;;;;;2.33;2.33;;;;;35.31;19.17;102229.09;5079944;27;45429;-71
2022/07/17 08:43:03;;;;;;;;;0.00;0.00;;;;;35.35;19.05;102216.56;5079845;27;45298;-72
2022/07/17 08:45:29;;;;;;;;;0.67;0.67;;;;;35.43;18.47;102215.53;5080201;27;45495;-72
2022/07/17 08:47:55;;;;;;;;;1.00;1.00;;;;;35.54;18.82;102220.47;5079543;28;48027;-70
2022/07/17 08:50:27;;;;;;;;;1.00;1.00;;;;;35.88;18.14;102206.66;5080169;27;45472;-70
2022/07/17 08:52:52;;;;;;;;;0.00;0.00;;;;;36.24;18.47;102206.25;5080147;27;45421;-71
2022/07/17 08:55:18;;;;;;;;;0.00;0.00;;;;;36.54;16.85;102216.84;5079854;27;45604;-71
2022/07/17 08:57:44;;;;;;;;;2.00;2.00;;;;;36.71;17.22;102216.38;5079568;27;46054;-71
2022/07/17 09:00:11;;;;;;;;;1.33;1.33;;;;;36.97;16.89;102221.00;5079778;27;45393;-72
2022/07/17 09:02:51;;;;;;;;;1.00;1.00;;;;;37.12;16.81;102222.63;5079273;27;45346;-71
2022/07/17 09:05:20;;;;;;;;;2.33;1.00;;;;;37.25;16.58;102217.03;5067975;27;45416;-71
2022/07/17 09:07:47;;;;;;;;;2.00;2.00;;;;;37.38;15.88;102216.97;5079445;27;45338;-73
2022/07/17 09:10:12;;;;;;;;;1.00;1.00;;;;;37.75;16.59;102224.59;5079156;28;45346;-71
2022/07/17 09:12:38;;;;;;;;;0.00;0.00;;;;;37.77;15.07;102222.47;5078740;27;45397;-72
2022/07/17 09:15:16;;;;;;;;;0.00;0.00;;;;;37.53;15.69;102224.13;5079792;27;45481;-71
2022/07/17 09:17:49;;;;;;;;;1.67;1.67;;;;;37.38;15.58;102219.75;5079522;27;45797;-73
2022/07/17 09:20:16;;;;;;;;;1.00;1.00;;;;;37.31;16.29;102221.69;5079632;27;45359;-72
2022/07/17 09:22:42;;;;;;;;;2.00;2.00;;;;;37.39;16.47;102215.03;5079627;27;45456;-73
2022/07/17 09:25:08;;;;;;;;;1.00;1.00;;;;;37.81;15.77;102209.00;5079556;27;45430;-73
2022/07/17 09:27:33;;;;;;;;;1.00;0.00;;;;;38.15;15.66;102206.78;5078141;27;46877;-72
2022/07/17 09:30:12;;;;;;;;;1.00;1.00;;;;;37.93;14.41;102223.00;5079080;27;45448;-73
2022/07/17 09:32:39;;;;;;;;;1.00;1.00;;;;;37.94;15.09;102225.56;5079659;27;45481;-73
2022/07/17 09:35:06;;;;;;;;;2.33;1.00;;;;;37.93;14.77;102215.53;5079679;27;45270;-72
2022/07/17 09:37:33;;;;;;;;;0.00;0.00;;;;;38.03;14.92;102218.66;5079165;27;46241;-72
2022/07/17 09:39:58;;;;;;;;;1.00;1.00;;;;;38.22;14.66;102210.34;5082171;27;45476;-72
2022/07/17 09:42:31;;;;;;;;;2.00;2.00;;;;;38.29;13.81;102215.84;5082764;27;45495;-71
2022/07/17 09:45:08;;;;;;;;;1.00;1.00;;;;;38.48;14.45;102206.47;5082919;27;45421;-72
2022/07/17 09:47:35;;;;;;;;;0.00;0.00;;;;;38.84;14.22;102220.59;5080086;28;46180;-72
2022/07/17 09:50:03;;;;;;;;;0.67;0.67;;;;;39.33;14.13;102215.91;5082655;27;45799;-72
2022/07/17 09:52:31;;;;;;;;;0.33;0.33;;;;;39.82;14.08;102217.75;5082382;27;45399;-73
2022/07/17 09:54:58;;;;;;;;;0.00;0.00;;;;;40.19;14.11;102217.56;5082157;27;45549;-71
2022/07/17 09:57:29;;;;;;;;;0.67;0.67;;;;;40.51;14.13;102211.59;5081635;27;45557;-73
2022/07/17 09:59:58;;;;;;;;;1.00;1.00;;;;;40.96;13.21;102213.69;5069583;28;45736;-72
2022/07/17 10:02:24;;;;;;;;;0.00;0.00;;;;;41.10;12.00;102214.25;5080265;27;45745;-71
2022/07/17 10:04:51;;;;;;;;;1.00;1.00;;;;;41.21;11.54;102215.28;5082333;27;45556;-71
2022/07/17 10:07:17;;;;;;;;;0.33;0.33;;;;;41.10;11.86;102203.09;5081982;27;45360;-72
2022/07/17 10:09:42;;;;;;;;;0.33;0.33;;;;;41.02;11.92;102206.28;5082241;27;45323;-71
2022/07/17 10:12:08;;;;;;;;;2.00;2.00;;;;;41.21;12.04;102206.91;5082406;27;45343;-71
2022/07/17 10:14:34;;;;;;;;;1.33;0.00;;;;;41.62;12.55;102212.44;5081679;28;45444;-71
2022/07/17 10:17:13;;;;;;;;;1.00;1.00;;;;;42.06;11.31;102222.91;5082524;27;46244;-72
2022/07/17 10:20:05;;;;;;;;;2.00;2.00;;;;;42.22;11.24;102219.25;5082538;27;45339;-72
2022/07/17 10:22:44;;;;;;;;;1.00;1.00;;;;;42.67;11.71;102210.97;5081496;27;45285;-73
2022/07/17 10:25:14;;;;;;;;;1.00;1.00;;;;;43.09;10.48;102210.34;5082278;27;45512;-73
2022/07/17 10:27:47;;;;;;;;;1.00;1.00;;;;;43.35;10.65;102219.00;5082102;27;46970;-73
2022/07/17 10:30:13;;;;;;;;;1.67;0.67;;;;;43.72;10.63;102219.09;5082094;27;45583;-73
2022/07/17 10:32:38;;;;;;;;;0.33;0.33;;;;;43.79;10.24;102227.28;5082527;27;45229;-73
2022/07/17 10:35:09;;;;;;;;;0.67;0.67;;;;;43.97;10.32;102219.59;5081845;27;60212;-74
2022/07/17 10:37:34;;;;;;;;;1.00;1.00;;;;;44.28;10.51;102218.66;5082316;27;46226;-73
2022/07/17 10:40:04;;;;;;;;;0.67;0.67;;;;;44.50;9.41;102222.44;5081964;28;45437;-73
2022/07/17 10:42:40;;;;;;;;;1.00;0.33;;;;;44.28;10.06;102218.66;5082464;27;45204;-73
2022/07/17 10:45:11;;;;;;;;;0.00;0.00;;;;;44.13;9.30;102224.16;5082298;27;45572;-74
2022/07/17 10:47:43;;;;;;;;;2.00;2.00;;;;;43.97;9.96;102225.22;5080410;28;46003;-74
2022/07/17 10:50:11;;;;;;;;;1.33;1.00;;;;;43.98;10.42;102219.31;5081038;27;45378;-74
2022/07/17 10:52:36;;;;;;;;;2.00;2.00;;;;;44.08;9.74;102216.59;5081928;27;45436;-74
2022/07/17 10:55:04;;;;;;;;;0.33;0.33;;;;;44.32;10.23;102213.41;5080693;27;69526;-74
2022/07/17 10:57:31;;;;;;;;;1.00;1.00;;;;;44.31;9.37;102213.66;5081767;27;46504;-74
2022/07/17 10:59:56;;;;;;;;;2.00;2.00;;;;;44.15;9.01;102221.97;5081782;28;45524;-74
2022/07/17 11:02:29;;;;;;;;;1.00;1.00;;;;;44.07;9.13;102216.88;5081359;27;50667;-75
2022/07/17 11:05:04;;;;;;;;;1.67;0.33;;;;;44.19;9.46;102211.06;5082112;27;45406;-75
2022/07/17 11:07:30;;;;;;;;;0.00;0.00;;;;;44.29;9.18;102208.31;5081745;28;46447;-74
2022/07/17 11:09:55;;;;;;;;;0.00;0.00;;;;;44.32;8.65;102212.53;5080915;27;71353;-74
2022/07/17 11:12:33;;;;;;;;;1.00;1.00;;;;;44.33;8.73;102205.81;5081052;27;64521;-74
2022/07/17 11:15:03;;;;;;;;;1.00;1.00;;;;;44.24;8.41;102209.13;5081768;27;45337;-74
2022/07/17 11:17:28;;;;;;;;;1.00;1.00;;;;;44.13;9.34;102204.56;5081254;27;46212;-74
2022/07/17 11:19:53;;;;;;;;;0.00;0.00;;;;;44.37;8.44;102207.81;5079909;28;45269;-74